Time;durP1;ratioP1;P1;durP2;ratioP2;P2;SDS_P1;SDS_P2;PMS_P1;PMS_P2;Temp;Humidity;BMP_temperature;BMP_pressure;BME280_temperature;BME280_humidity;BME280_pressure;Samples;Min_cycle;Max_cycle;Signal;HPM_P1;HPM_P2
2022/09/09 00:01:21;;;;;;;18.05;8.50;;;17.60;99.90;;;;;;5119609;28;20103;-70
2022/09/09 00:04:25;;;;;;;11.07;8.27;;;17.40;99.90;;;;;;5119542;28;20039;-70
2022/09/09 00:07:03;;;;;;;15.55;7.80;;;17.50;99.90;;;;;;5119477;28;20096;-70
2022/09/09 00:09:37;;;;;;;14.05;8.50;;;17.60;99.90;;;;;;5119570;28;20039;-70
2022/09/09 00:12:45;;;;;;;21.33;11.40;;;17.60;99.90;;;;;;5119257;28;20377;-70
2022/09/09 00:15:19;;;;;;;12.68;8.38;;;17.60;99.90;;;;;;5119433;28;20050;-70
2022/09/09 00:18:01;;;;;;;12.25;8.38;;;17.60;99.90;;;;;;5119356;28;20044;-70
2022/09/09 00:20:32;;;;;;;26.58;10.70;;;17.50;99.90;;;;;;5119312;28;20359;-70
2022/09/09 00:23:06;;;;;;;11.63;7.60;;;17.50;99.90;;;;;;5119298;28;20040;-70
2022/09/09 00:25:48;;;;;;;12.63;8.48;;;17.50;99.90;;;;;;5119156;28;20047;-70
2022/09/09 00:28:19;;;;;;;10.88;8.23;;;17.50;99.90;;;;;;5117947;28;20404;-70
2022/09/09 00:30:48;;;;;;;11.57;8.25;;;17.50;99.90;;;;;;5118956;28;20513;-70
2022/09/09 00:33:18;;;;;;;16.13;8.70;;;17.50;99.90;;;;;;5118696;28;20437;-70
2022/09/09 00:35:53;;;;;;;15.52;10.30;;;17.50;99.90;;;;;;5119020;28;20118;-70
2022/09/09 00:38:27;;;;;;;11.15;8.45;;;17.40;99.90;;;;;;5117684;28;20032;-70
2022/09/09 00:41:22;;;;;;;12.70;8.98;;;17.40;99.90;;;;;;5118757;28;20353;-70
2022/09/09 00:44:35;;;;;;;14.63;9.57;;;17.40;99.90;;;;;;5116616;28;20071;-70
2022/09/09 00:47:31;;;;;;;12.93;8.35;;;17.40;99.90;;;;;;5089600;27;20047;-70
2022/09/09 00:50:12;;;;;;;13.55;8.02;;;17.40;99.90;;;;;;5118593;28;20040;-70
2022/09/09 00:53:12;;;;;;;13.95;8.43;;;17.40;99.90;;;;;;5118780;28;20046;-69
2022/09/09 00:56:07;;;;;;;13.85;8.07;;;17.40;99.90;;;;;;5118459;28;20110;-70
2022/09/09 00:58:33;;;;;;;10.98;8.55;;;17.40;99.90;;;;;;5118345;28;20046;-70
2022/09/09 01:01:02;;;;;;;13.15;8.55;;;17.40;99.90;;;;;;5118400;28;20040;-70
2022/09/09 01:03:34;;;;;;;13.00;8.63;;;17.30;99.90;;;;;;5117140;28;20050;-70
2022/09/09 01:06:34;;;;;;;10.50;8.15;;;17.30;99.90;;;;;;5118309;28;20048;-70
2022/09/09 01:09:36;;;;;;;14.23;8.35;;;17.20;99.90;;;;;;5117994;28;20130;-70
2022/09/09 01:12:17;;;;;;;12.52;9.27;;;17.10;99.90;;;;;;5094248;27;20122;-70
2022/09/09 01:14:51;;;;;;;12.90;8.18;;;17.00;99.90;;;;;;5118068;28;20042;-70
2022/09/09 01:17:46;;;;;;;11.10;7.80;;;17.00;99.90;;;;;;5117831;27;20046;-71
2022/09/09 01:20:24;;;;;;;13.70;8.32;;;17.00;99.90;;;;;;5117737;28;20028;-70
2022/09/09 01:23:26;;;;;;;12.25;7.53;;;17.00;99.90;;;;;;5118050;28;20048;-69
2022/09/09 01:26:22;;;;;;;11.52;8.60;;;16.90;99.90;;;;;;5118025;28;20110;-70
2022/09/09 01:28:52;;;;;;;15.80;9.70;;;16.90;99.90;;;;;;5117925;28;20039;-69
2022/09/09 01:31:23;;;;;;;12.43;8.32;;;16.80;99.90;;;;;;5117706;28;20039;-70
2022/09/09 01:33:49;;;;;;;12.98;8.68;;;16.80;99.90;;;;;;5117607;28;20032;-70
2022/09/09 01:36:37;;;;;;;15.25;8.18;;;16.80;99.90;;;;;;5117935;28;20119;-70
2022/09/09 01:39:03;;;;;;;14.43;9.13;;;16.90;99.90;;;;;;5117326;28;20373;-70
2022/09/09 01:41:29;;;;;;;11.25;7.20;;;16.90;99.90;;;;;;5117633;28;20058;-70
2022/09/09 01:43:55;;;;;;;15.73;8.48;;;16.90;99.90;;;;;;5117505;28;20032;-69
2022/09/09 01:46:22;;;;;;;14.88;8.27;;;16.90;99.90;;;;;;5117503;28;20031;-70
2022/09/09 01:48:50;;;;;;;11.43;8.23;;;16.90;99.90;;;;;;5117567;28;20035;-70
2022/09/09 01:51:15;;;;;;;12.30;8.18;;;16.80;99.90;;;;;;5117519;28;20044;-69
2022/09/09 01:53:43;;;;;;;12.43;7.78;;;16.80;99.90;;;;;;5117423;28;20028;-69
2022/09/09 01:56:29;;;;;;;12.13;7.72;;;16.80;99.90;;;;;;5117086;28;20042;-70
2022/09/09 01:59:11;;;;;;;12.48;8.15;;;16.80;99.90;;;;;;5117352;27;20043;-70
2022/09/09 02:01:58;;;;;;;13.48;8.15;;;16.80;99.90;;;;;;5117300;28;20043;-70
2022/09/09 02:04:34;;;;;;;13.15;8.18;;;16.90;99.90;;;;;;5117203;28;20039;-70
2022/09/09 02:07:00;;;;;;;20.55;9.70;;;16.90;99.90;;;;;;5117138;28;20332;-70
2022/09/09 02:09:29;;;;;;;12.52;8.40;;;16.90;99.90;;;;;;5117103;28;20039;-70
2022/09/09 02:12:04;;;;;;;15.93;9.27;;;16.80;99.90;;;;;;5116059;28;20443;-70
2022/09/09 02:14:35;;;;;;;17.20;10.02;;;16.80;99.90;;;;;;5116225;28;20340;-70
2022/09/09 02:17:13;;;;;;;12.55;8.57;;;16.80;99.90;;;;;;5117258;28;20055;-69
2022/09/09 02:19:46;;;;;;;15.65;10.18;;;16.70;99.90;;;;;;5116927;28;20095;-70
2022/09/09 02:22:12;;;;;;;18.30;9.05;;;16.70;99.90;;;;;;5117059;28;20047;-69
2022/09/09 02:24:40;;;;;;;16.38;9.02;;;16.80;99.90;;;;;;5117262;28;20035;-69
2022/09/09 02:27:09;;;;;;;13.27;9.02;;;16.80;99.90;;;;;;5116539;28;20078;-69
2022/09/09 02:29:39;;;;;;;12.30;7.90;;;16.80;99.90;;;;;;5117144;28;20039;-70
2022/09/09 02:32:10;;;;;;;15.70;9.10;;;16.80;99.90;;;;;;5117418;28;20145;-70
2022/09/09 02:34:42;;;;;;;11.32;8.48;;;16.90;99.90;;;;;;5121338;28;20100;-70
2022/09/09 02:37:11;;;;;;;16.77;9.27;;;16.90;99.90;;;;;;5121392;28;20101;-70
2022/09/09 02:39:36;;;;;;;14.05;8.48;;;17.00;99.90;;;;;;5120783;28;20509;-70
2022/09/09 02:42:04;;;;;;;15.63;9.07;;;17.10;99.90;;;;;;5120993;28;20040;-69
2022/09/09 02:44:30;;;;;;;15.52;10.00;;;17.10;99.90;;;;;;5120882;28;20051;-70
2022/09/09 02:47:12;;;;;;;22.52;11.38;;;17.20;99.90;;;;;;5120894;28;20032;-70
2022/09/09 02:50:10;;;;;;;18.90;9.63;;;17.20;99.90;;;;;;5121043;28;20110;-70
2022/09/09 02:52:59;;;;;;;15.98;8.77;;;17.20;99.90;;;;;;5120913;28;20425;-70
2022/09/09 02:55:49;;;;;;;10.63;8.25;;;17.10;99.90;;;;;;5121088;28;20040;-69
2022/09/09 02:58:18;;;;;;;17.30;10.65;;;17.10;99.90;;;;;;5120190;28;20047;-70
2022/09/09 03:00:46;;;;;;;15.80;10.10;;;17.20;99.90;;;;;;5119404;28;20333;-70
2022/09/09 03:03:12;;;;;;;20.33;10.35;;;17.20;99.90;;;;;;5120591;28;20101;-69
2022/09/09 03:05:38;;;;;;;23.13;11.93;;;17.10;99.90;;;;;;5119466;28;20035;-70
2022/09/09 03:08:05;;;;;;;13.02;7.93;;;17.10;99.90;;;;;;5120826;28;20301;-69
2022/09/09 03:10:32;;;;;;;23.55;10.35;;;17.20;99.90;;;;;;5120575;27;20042;-70
2022/09/09 03:12:58;;;;;;;12.55;8.32;;;17.20;99.90;;;;;;5119691;28;20040;-70
2022/09/09 03:15:30;;;;;;;15.82;8.18;;;17.10;99.90;;;;;;5119256;28;20310;-70
2022/09/09 03:17:56;;;;;;;14.57;8.70;;;17.20;99.90;;;;;;5120484;28;20047;-70
2022/09/09 03:20:23;;;;;;;17.73;9.25;;;17.10;99.90;;;;;;5120926;28;20040;-70
2022/09/09 03:22:49;;;;;;;18.42;8.25;;;17.10;99.90;;;;;;5120413;28;20366;-70
2022/09/09 03:25:15;;;;;;;15.80;7.75;;;17.10;99.90;;;;;;5120531;28;20028;-70
2022/09/09 03:27:40;;;;;;;10.77;6.22;;;17.20;99.90;;;;;;5119636;28;20420;-70
2022/09/09 03:30:07;;;;;;;12.38;6.32;;;17.30;99.90;;;;;;5119286;28;20039;-70
2022/09/09 03:32:32;;;;;;;10.25;5.70;;;17.30;99.90;;;;;;5119988;28;20075;-70
2022/09/09 03:34:58;;;;;;;9.98;6.40;;;17.30;99.90;;;;;;5120232;28;20380;-70
2022/09/09 03:37:24;;;;;;;9.38;6.80;;;17.40;99.90;;;;;;5119993;28;20443;-70
2022/09/09 03:39:49;;;;;;;13.70;5.72;;;17.40;99.90;;;;;;5119634;27;20056;-70
2022/09/09 03:42:19;;;;;;;17.67;8.30;;;17.40;99.90;;;;;;5120074;28;20039;-70
2022/09/09 03:44:49;;;;;;;12.98;6.18;;;17.50;99.90;;;;;;5119395;28;20028;-70
2022/09/09 03:47:21;;;;;;;10.43;5.78;;;17.50;99.90;;;;;;5120041;28;20043;-70
2022/09/09 03:49:48;;;;;;;10.40;4.90;;;17.50;99.90;;;;;;5120134;28;20032;-70
2022/09/09 03:52:14;;;;;;;11.60;5.78;;;17.60;99.90;;;;;;5119810;28;20040;-70
2022/09/09 03:54:42;;;;;;;11.43;4.78;;;17.60;99.90;;;;;;5119686;28;20118;-70
2022/09/09 03:57:09;;;;;;;10.35;4.30;;;17.70;99.90;;;;;;5119222;28;20448;-70
2022/09/09 03:59:35;;;;;;;10.25;3.83;;;17.70;99.90;;;;;;5119849;28;20039;-70
2022/09/09 04:02:01;;;;;;;8.77;3.15;;;17.60;99.90;;;;;;5119415;28;20092;-70
2022/09/09 04:04:26;;;;;;;10.05;3.20;;;17.70;99.90;;;;;;5119754;28;20067;-70
2022/09/09 04:06:53;;;;;;;10.55;2.55;;;17.60;99.90;;;;;;5119596;28;20074;-70
2022/09/09 04:09:19;;;;;;;9.38;2.50;;;17.60;99.90;;;;;;5119496;28;20036;-70
2022/09/09 04:11:45;;;;;;;11.73;3.35;;;17.60;99.90;;;;;;5119451;28;20062;-70
2022/09/09 04:14:12;;;;;;;9.00;2.20;;;17.50;99.90;;;;;;5119252;28;20044;-70
2022/09/09 04:16:38;;;;;;;8.45;2.05;;;17.50;99.90;;;;;;5119192;28;20044;-70
2022/09/09 04:19:06;;;;;;;6.20;2.33;;;17.50;99.90;;;;;;5119288;28;20084;-70
2022/09/09 04:21:32;;;;;;;8.80;2.90;;;17.60;99.90;;;;;;5119314;28;20054;-70
2022/09/09 04:23:57;;;;;;;11.05;3.33;;;17.50;99.90;;;;;;5118918;28;20035;-70
2022/09/09 04:26:23;;;;;;;6.15;2.70;;;17.50;99.90;;;;;;5118731;28;20031;-70
2022/09/09 04:28:50;;;;;;;8.38;2.75;;;17.40;99.90;;;;;;5118853;28;20428;-70
2022/09/09 04:31:19;;;;;;;8.88;3.20;;;17.40;99.90;;;;;;5119218;28;20056;-70
2022/09/09 04:33:46;;;;;;;8.68;3.30;;;17.30;99.90;;;;;;5119059;28;20054;-70
2022/09/09 04:36:12;;;;;;;10.18;4.57;;;17.40;99.90;;;;;;5119021;28;20039;-70
2022/09/09 04:38:38;;;;;;;8.27;3.10;;;17.40;99.90;;;;;;5118769;28;20035;-70
2022/09/09 04:41:04;;;;;;;7.22;3.40;;;17.30;99.90;;;;;;5118550;28;20371;-70
2022/09/09 04:43:30;;;;;;;8.88;4.47;;;17.20;99.90;;;;;;5118601;28;20037;-70
2022/09/09 04:45:56;;;;;;;9.50;3.90;;;17.20;99.90;;;;;;5118671;28;20039;-70
2022/09/09 04:48:24;;;;;;;10.77;4.32;;;17.20;99.90;;;;;;5118902;28;20088;-69
2022/09/09 04:51:06;;;;;;;8.68;4.50;;;17.00;99.90;;;;;;5118614;28;20039;-69
2022/09/09 04:53:35;;;;;;;8.57;4.57;;;17.00;99.90;;;;;;5118749;28;20035;-69
2022/09/09 04:56:12;;;;;;;8.68;4.75;;;17.00;99.90;;;;;;5117454;28;20480;-69
2022/09/09 04:58:39;;;;;;;12.60;5.75;;;17.10;99.90;;;;;;5118343;27;20447;-69
2022/09/09 05:01:12;;;;;;;10.82;4.78;;;16.90;99.90;;;;;;5118550;28;20075;-69
2022/09/09 05:03:38;;;;;;;9.85;4.97;;;17.00;99.90;;;;;;5118576;28;20107;-69
2022/09/09 05:06:10;;;;;;;10.10;5.22;;;17.00;99.90;;;;;;5118521;28;20374;-69
2022/09/09 05:08:37;;;;;;;10.82;6.07;;;16.90;99.90;;;;;;5118116;28;20050;-70
2022/09/09 05:11:12;;;;;;;9.48;6.13;;;16.80;99.90;;;;;;5118287;28;20302;-71
2022/09/09 05:13:37;;;;;;;11.77;6.22;;;16.90;99.90;;;;;;5118422;28;20050;-70
2022/09/09 05:16:04;;;;;;;9.65;6.25;;;16.90;99.90;;;;;;5118082;28;20036;-70
2022/09/09 05:18:29;;;;;;;12.40;5.97;;;17.10;99.90;;;;;;5118195;28;20045;-70
2022/09/09 05:21:00;;;;;;;15.35;8.10;;;17.10;99.90;;;;;;5151170;27;20040;-70
2022/09/09 05:23:26;;;;;;;12.15;7.05;;;17.00;99.90;;;;;;5118024;28;20104;-70
2022/09/09 05:25:58;;;;;;;13.65;7.57;;;16.80;99.90;;;;;;5117694;28;20114;-70
2022/09/09 05:28:27;;;;;;;16.52;8.57;;;16.90;99.90;;;;;;5117585;28;20038;-70
2022/09/09 05:31:04;;;;;;;10.95;7.18;;;16.80;99.90;;;;;;5117789;28;20180;-69
2022/09/09 05:33:30;;;;;;;17.42;9.80;;;16.70;99.90;;;;;;5117646;28;20047;-70
2022/09/09 05:36:02;;;;;;;13.85;8.15;;;16.60;99.90;;;;;;5117610;28;20444;-70
2022/09/09 05:38:29;;;;;;;15.82;8.40;;;16.40;99.90;;;;;;5117586;28;20051;-70
2022/09/09 05:40:56;;;;;;;12.10;8.00;;;16.60;99.90;;;;;;5116527;28;20066;-70
2022/09/09 05:43:25;;;;;;;13.40;8.15;;;16.70;99.90;;;;;;5117543;28;20043;-69
2022/09/09 05:46:05;;;;;;;11.20;8.13;;;16.70;99.90;;;;;;5117696;28;20063;-70
2022/09/09 05:48:33;;;;;;;14.57;9.90;;;16.80;99.90;;;;;;5117533;28;20035;-70
2022/09/09 05:51:06;;;;;;;21.02;11.30;;;16.80;99.90;;;;;;5117531;28;20092;-70
2022/09/09 05:53:33;;;;;;;18.08;10.63;;;16.80;99.90;;;;;;5117413;28;20043;-70
2022/09/09 05:56:04;;;;;;;14.68;9.50;;;17.00;99.90;;;;;;5117408;28;20079;-70
2022/09/09 05:58:34;;;;;;;14.23;9.38;;;16.90;99.90;;;;;;5116802;28;20051;-69
2022/09/09 06:01:02;;;;;;;15.18;9.88;;;16.90;99.90;;;;;;5117370;28;20043;-70
2022/09/09 06:03:27;;;;;;;14.63;8.85;;;16.90;99.90;;;;;;5117292;28;20039;-70
2022/09/09 06:06:00;;;;;;;12.93;8.75;;;16.80;99.90;;;;;;5117170;28;20035;-70
2022/09/09 06:08:26;;;;;;;12.13;8.10;;;16.90;99.90;;;;;;5117155;28;20063;-70
2022/09/09 06:10:52;;;;;;;15.27;9.02;;;17.10;99.90;;;;;;5117365;28;20039;-69
2022/09/09 06:13:18;;;;;;;11.38;7.85;;;17.00;99.90;;;;;;5117054;28;20047;-70
2022/09/09 06:15:52;;;;;;;13.95;8.40;;;16.90;99.90;;;;;;5117325;28;20039;-70
2022/09/09 06:18:19;;;;;;;17.02;8.70;;;17.00;99.90;;;;;;5116859;28;20424;-70
2022/09/09 06:21:03;;;;;;;14.35;7.85;;;17.00;99.90;;;;;;5117094;28;20047;-70
2022/09/09 06:23:29;;;;;;;14.13;8.43;;;17.00;99.90;;;;;;5117269;28;20036;-70
2022/09/09 06:26:05;;;;;;;12.77;8.48;;;16.90;99.90;;;;;;5116812;28;20042;-70
2022/09/09 06:28:32;;;;;;;13.73;7.97;;;16.90;99.90;;;;;;5116565;28;20046;-70
2022/09/09 06:31:06;;;;;;;13.00;7.88;;;17.00;99.90;;;;;;5116946;28;20035;-70
2022/09/09 06:33:34;;;;;;;10.70;7.90;;;16.90;99.90;;;;;;5117011;28;20088;-70
2022/09/09 06:36:01;;;;;;;13.63;8.25;;;17.00;99.90;;;;;;5116852;28;20071;-70
2022/09/09 06:38:27;;;;;;;13.77;7.95;;;16.90;99.90;;;;;;5116826;28;20066;-70
2022/09/09 06:40:55;;;;;;;12.05;7.60;;;17.00;99.90;;;;;;5116689;28;20333;-70
2022/09/09 06:43:22;;;;;;;12.18;7.97;;;16.90;99.90;;;;;;5116986;28;20040;-69
2022/09/09 06:45:59;;;;;;;14.35;7.80;;;16.90;99.90;;;;;;5116967;28;20050;-70
2022/09/09 06:48:26;;;;;;;17.05;8.18;;;16.90;99.90;;;;;;5116649;28;20035;-70
2022/09/09 06:51:27;;;;;;;12.63;8.60;;;16.90;99.90;;;;;;5116621;28;20047;-69
2022/09/09 06:53:55;;;;;;;15.25;8.02;;;17.00;99.90;;;;;;5114035;28;20128;-70
2022/09/09 06:56:23;;;;;;;15.02;8.07;;;17.00;99.90;;;;;;5116240;28;20062;-70
2022/09/09 06:58:51;;;;;;;11.82;8.07;;;17.00;99.90;;;;;;5115566;28;20046;-69
2022/09/09 07:01:20;;;;;;;12.27;8.15;;;16.90;99.90;;;;;;5116344;28;20121;-70
2022/09/09 07:03:48;;;;;;;10.32;7.22;;;16.90;99.90;;;;;;5116605;28;20420;-70
2022/09/09 07:06:17;;;;;;;10.00;7.13;;;17.00;99.90;;;;;;5116661;28;20044;-69
2022/09/09 07:08:43;;;;;;;11.73;7.25;;;17.00;99.90;;;;;;5115561;28;20039;-70
2022/09/09 07:11:10;;;;;;;12.18;8.35;;;17.10;99.90;;;;;;5116575;28;20044;-70
2022/09/09 07:13:37;;;;;;;16.55;8.85;;;17.20;99.90;;;;;;5115581;28;20108;-70
2022/09/09 07:16:07;;;;;;;12.38;7.85;;;17.00;99.90;;;;;;5116727;28;20043;-70
2022/09/09 07:18:34;;;;;;;15.10;8.80;;;17.10;99.90;;;;;;5117851;28;20096;-70
2022/09/09 07:21:01;;;;;;;11.20;8.15;;;17.20;99.90;;;;;;5120388;28;20052;-70
2022/09/09 07:23:28;;;;;;;13.60;7.78;;;17.20;99.90;;;;;;5120293;28;20035;-69
2022/09/09 07:25:54;;;;;;;14.88;8.05;;;17.30;99.90;;;;;;5120194;28;20032;-70
2022/09/09 07:28:20;;;;;;;11.00;7.63;;;17.30;99.90;;;;;;5120001;28;20068;-70
2022/09/09 07:31:04;;;;;;;12.18;8.05;;;17.50;99.90;;;;;;5120273;28;20035;-70
2022/09/09 07:33:33;;;;;;;14.02;8.00;;;17.60;99.90;;;;;;5120300;28;20043;-70
2022/09/09 07:36:18;;;;;;;11.43;6.82;;;17.70;99.90;;;;;;5120271;28;20070;-69
2022/09/09 07:38:47;;;;;;;16.52;8.55;;;17.50;99.90;;;;;;5120178;28;20035;-70
2022/09/09 07:41:30;;;;;;;11.77;6.88;;;17.70;99.90;;;;;;5119946;28;20138;-71
2022/09/09 07:43:56;;;;;;;15.02;8.05;;;17.80;99.90;;;;;;5119990;27;20028;-70
2022/09/09 07:46:25;;;;;;;12.70;7.82;;;17.80;99.90;;;;;;5119972;28;20485;-70
2022/09/09 07:48:53;;;;;;;12.90;8.10;;;17.80;99.90;;;;;;5119758;28;20036;-70
2022/09/09 07:51:26;;;;;;;11.23;7.32;;;18.00;99.90;;;;;;5119041;28;20337;-70
2022/09/09 07:53:59;;;;;;;12.55;6.97;;;18.10;99.90;;;;;;5119832;28;20035;-70
2022/09/09 07:56:26;;;;;;;8.80;6.07;;;18.20;99.90;;;;;;5119414;28;20038;-70
2022/09/09 07:58:54;;;;;;;12.90;6.97;;;18.30;99.90;;;;;;5119799;28;20063;-70
2022/09/09 08:01:24;;;;;;;12.30;7.13;;;18.50;99.90;;;;;;5119504;28;20118;-70
2022/09/09 08:04:02;;;;;;;9.27;6.32;;;18.50;99.90;;;;;;5119803;28;20043;-70
2022/09/09 08:06:32;;;;;;;10.35;6.50;;;18.40;99.90;;;;;;5119134;28;20362;-70
2022/09/09 08:08:59;;;;;;;8.13;6.00;;;18.30;99.90;;;;;;5118761;28;20027;-70
2022/09/09 08:11:26;;;;;;;11.73;7.15;;;18.50;99.90;;;;;;5119318;28;20417;-70
2022/09/09 08:13:53;;;;;;;10.70;6.35;;;18.50;99.90;;;;;;5119253;28;20447;-70
2022/09/09 08:16:22;;;;;;;11.68;6.63;;;18.40;99.90;;;;;;5119062;28;20039;-70
2022/09/09 08:18:49;;;;;;;9.13;5.57;;;18.50;99.90;;;;;;5119534;28;20120;-70
2022/09/09 08:21:23;;;;;;;13.38;5.72;;;18.50;99.90;;;;;;5119311;28;20362;-70
2022/09/09 08:23:52;;;;;;;11.15;5.47;;;18.80;99.90;;;;;;5119331;28;20112;-70
2022/09/09 08:26:38;;;;;;;8.85;5.20;;;18.70;99.90;;;;;;5119236;28;20039;-70
2022/09/09 08:29:06;;;;;;;12.52;5.95;;;18.90;99.90;;;;;;5100573;28;20118;-70
2022/09/09 08:31:34;;;;;;;11.75;5.97;;;18.90;99.90;;;;;;5118564;28;20051;-70
2022/09/09 08:34:03;;;;;;;11.23;5.43;;;19.00;99.90;;;;;;5119009;28;20043;-70
2022/09/09 08:36:33;;;;;;;10.65;6.03;;;19.10;99.90;;;;;;5118963;28;20092;-70
2022/09/09 08:38:59;;;;;;;9.27;5.22;;;19.10;99.90;;;;;;5118518;28;20495;-70
2022/09/09 08:41:43;;;;;;;8.50;5.03;;;19.20;99.90;;;;;;5118942;28;20083;-70
2022/09/09 08:44:17;;;;;;;10.63;5.82;;;19.10;99.90;;;;;;5119005;28;20118;-70
2022/09/09 08:47:01;;;;;;;6.60;5.45;;;19.00;99.90;;;;;;5118704;28;20035;-70
2022/09/09 08:49:35;;;;;;;12.23;5.10;;;19.00;99.90;;;;;;5118612;28;20485;-70
2022/09/09 08:52:03;;;;;;;11.07;5.57;;;19.10;99.90;;;;;;5118635;28;20044;-70
2022/09/09 08:54:34;;;;;;;11.13;5.43;;;19.10;99.90;;;;;;5117815;28;20065;-70
2022/09/09 08:57:00;;;;;;;6.85;4.63;;;19.20;99.90;;;;;;5118058;28;20412;-70
2022/09/09 08:59:25;;;;;;;11.02;5.10;;;19.30;99.90;;;;;;5118515;28;20039;-70
2022/09/09 09:02:02;;;;;;;6.53;4.68;;;19.30;99.90;;;;;;5118297;28;20087;-70
2022/09/09 09:04:49;;;;;;;9.25;5.07;;;19.50;99.90;;;;;;5118462;28;20040;-70
2022/09/09 09:07:41;;;;;;;8.23;4.18;;;19.70;99.90;;;;;;5117650;28;20067;-70
2022/09/09 09:10:30;;;;;;;9.60;4.22;;;19.70;99.90;;;;;;5118299;28;20063;-70
2022/09/09 09:12:56;;;;;;;7.85;4.28;;;19.60;99.90;;;;;;5118055;28;20043;-70
2022/09/09 09:15:42;;;;;;;6.80;4.05;;;19.60;99.90;;;;;;5117068;28;20340;-70
2022/09/09 09:18:12;;;;;;;10.35;4.90;;;19.60;99.90;;;;;;5118088;28;20039;-70
2022/09/09 09:20:53;;;;;;;9.18;4.57;;;19.70;99.90;;;;;;5118247;28;20088;-70
2022/09/09 09:23:26;;;;;;;11.90;5.00;;;19.80;99.90;;;;;;5118223;28;20325;-70
2022/09/09 09:25:59;;;;;;;7.55;4.20;;;19.90;99.90;;;;;;5118036;28;20054;-70
2022/09/09 09:28:28;;;;;;;7.40;4.40;;;20.00;99.90;;;;;;5117745;28;20386;-70
2022/09/09 09:31:12;;;;;;;7.97;4.13;;;19.90;99.90;;;;;;5117704;28;20413;-70
2022/09/09 09:33:40;;;;;;;10.25;4.28;;;19.80;99.90;;;;;;5117806;28;20039;-71
2022/09/09 09:36:09;;;;;;;10.35;4.15;;;19.90;99.90;;;;;;5117526;28;20088;-70
2022/09/09 09:38:37;;;;;;;12.38;3.50;;;19.70;99.90;;;;;;5117760;28;20028;-70
2022/09/09 09:41:03;;;;;;;9.35;3.70;;;19.80;99.90;;;;;;5117135;27;20062;-70
2022/09/09 09:43:31;;;;;;;10.88;4.15;;;19.70;99.90;;;;;;5117453;28;20425;-70
2022/09/09 09:45:57;;;;;;;16.80;4.45;;;19.70;99.90;;;;;;5117635;28;20088;-70
2022/09/09 09:48:24;;;;;;;8.40;3.40;;;19.70;99.90;;;;;;5117521;28;20446;-71
2022/09/09 09:51:20;;;;;;;9.20;3.83;;;19.70;99.90;;;;;;5117781;28;20063;-70
2022/09/09 09:53:46;;;;;;;12.38;4.00;;;19.70;99.90;;;;;;5103922;28;20054;-70
2022/09/09 09:56:14;;;;;;;11.40;4.65;;;19.70;99.90;;;;;;5117510;28;20043;-70
2022/09/09 09:58:50;;;;;;;10.43;4.45;;;19.90;99.90;;;;;;5116804;28;20122;-71
2022/09/09 10:01:29;;;;;;;9.10;3.33;;;19.90;99.90;;;;;;5116329;28;20336;-71
2022/09/09 10:04:16;;;;;;;11.27;3.40;;;19.80;99.90;;;;;;5117474;28;20058;-71
2022/09/09 10:06:41;;;;;;;;;;;19.80;99.90;;;;;;5117684;28;20039;-71
2022/09/09 10:09:22;;;;;;;11.77;3.37;;;20.00;99.90;;;;;;5117120;28;19984;-71
2022/09/09 10:12:13;;;;;;;12.13;3.22;;;20.40;99.90;;;;;;5117326;28;20040;-72
2022/09/09 10:14:42;;;;;;;9.82;2.88;;;20.60;99.90;;;;;;5117228;28;20052;-71
2022/09/09 10:17:13;;;;;;;10.35;2.60;;;20.90;99.90;;;;;;5116030;28;20054;-71
2022/09/09 10:19:49;;;;;;;8.13;2.53;;;21.30;99.90;;;;;;5117314;28;20047;-71
2022/09/09 10:22:31;;;;;;;9.93;2.15;;;21.50;99.90;;;;;;5117260;28;20047;-71
2022/09/09 10:25:34;;;;;;;8.30;2.55;;;21.80;99.90;;;;;;5116935;28;20095;-71
2022/09/09 10:28:35;;;;;;;9.88;2.35;;;21.60;99.90;;;;;;5116644;28;20042;-72
2022/09/09 10:31:15;;;;;;;9.20;2.30;;;21.40;99.90;;;;;;5054364;28;20092;-71
2022/09/09 10:33:51;;;;;;;10.43;2.50;;;21.30;99.90;;;;;;5110138;28;20051;-71
2022/09/09 10:36:20;;;;;;;10.70;2.33;;;21.00;99.90;;;;;;5116907;28;20040;-72
2022/09/09 10:38:49;;;;;;;11.13;2.20;;;21.00;99.90;;;;;;5116722;28;20051;-71
2022/09/09 10:41:20;;;;;;;11.68;2.53;;;21.30;99.90;;;;;;5116526;28;20386;-71
2022/09/09 10:44:06;;;;;;;6.43;1.70;;;21.30;99.90;;;;;;5116895;28;20050;-72
2022/09/09 10:46:38;;;;;;;9.67;2.10;;;21.20;99.90;;;;;;5116719;28;20039;-72
2022/09/09 10:49:33;;;;;;;12.10;2.67;;;21.00;99.90;;;;;;5116993;28;20078;-72
2022/09/09 10:52:14;;;;;;;10.18;1.95;;;21.10;99.90;;;;;;5116884;28;20122;-71
2022/09/09 10:55:04;;;;;;;9.55;1.90;;;21.40;99.90;;;;;;5120246;28;20127;-72
2022/09/09 10:58:00;;;;;;;9.43;1.63;;;21.80;99.90;;;;;;5120623;28;20039;-72
2022/09/09 11:00:37;;;;;;;8.93;1.90;;;21.90;99.90;;;;;;5107895;27;20441;-71
2022/09/09 11:03:04;;;;;;;7.20;1.65;;;21.80;99.90;;;;;;5120782;28;20050;-72
2022/09/09 11:05:40;;;;;;;9.27;1.60;;;21.80;99.90;;;;;;5120945;28;20042;-71
2022/09/09 11:08:13;;;;;;;9.27;1.50;;;21.60;99.90;;;;;;5120816;28;20047;-72
2022/09/09 11:11:03;;;;;;;6.30;1.30;;;21.50;99.90;;;;;;5120784;27;20042;-71
2022/09/09 11:13:56;;;;;;;8.48;1.60;;;21.20;99.90;;;;;;5120767;28;20057;-72
2022/09/09 11:17:00;;;;;;;6.43;1.52;;;21.20;99.90;;;;;;5120637;28;20046;-71
2022/09/09 11:19:45;;;;;;;7.57;1.60;;;21.10;99.90;;;;;;5078302;28;20119;-71
2022/09/09 11:22:38;;;;;;;6.38;1.38;;;21.60;99.90;;;;;;5120169;28;20074;-72
2022/09/09 11:25:18;;;;;;;7.22;1.17;;;22.30;99.90;;;;;;5120343;28;20043;-71
2022/09/09 11:28:15;;;;;;;8.35;1.48;;;22.40;99.90;;;;;;5120158;28;20104;-71
2022/09/09 11:31:28;;;;;;;7.32;1.20;;;22.40;99.90;;;;;;5120369;28;20332;-72
2022/09/09 11:34:01;;;;;;;8.77;1.48;;;22.60;99.90;;;;;;5057477;28;20052;-72
2022/09/09 11:36:35;;;;;;;8.18;1.30;;;23.00;99.90;;;;;;5110373;28;20052;-72
2022/09/09 11:39:30;;;;;;;7.13;1.40;;;23.30;99.90;;;;;;5120045;28;20050;-72
2022/09/09 11:42:07;;;;;;;8.95;1.60;;;23.10;99.90;;;;;;5116478;28;20318;-71
2022/09/09 11:44:33;;;;;;;4.20;1.00;;;22.60;99.90;;;;;;5119878;28;20058;-71
2022/09/09 11:46:59;;;;;;;4.55;1.10;;;22.30;99.90;;;;;;5119989;28;20032;-72
2022/09/09 11:49:42;;;;;;;5.72;1.30;;;22.20;99.90;;;;;;5119672;28;20035;-72
2022/09/09 11:52:25;;;;;;;7.65;1.38;;;22.10;99.90;;;;;;5119942;28;20058;-72
2022/09/09 11:54:51;;;;;;;7.15;1.25;;;22.30;99.90;;;;;;5118680;28;20413;-71
2022/09/09 11:57:30;;;;;;;7.57;1.52;;;22.40;99.90;;;;;;5118222;28;20070;-72
2022/09/09 11:59:56;;;;;;;8.00;1.10;;;22.20;99.90;;;;;;5119933;28;20386;-71
2022/09/09 12:02:30;;;;;;;7.40;1.25;;;22.20;99.90;;;;;;5119589;28;20040;-72
2022/09/09 12:05:08;;;;;;;7.95;1.27;;;22.50;99.90;;;;;;5118117;28;20043;-72
2022/09/09 12:07:56;;;;;;;7.10;1.15;;;22.70;99.90;;;;;;5119517;28;20036;-71
2022/09/09 12:10:27;;;;;;;7.78;1.48;;;22.70;99.90;;;;;;5119605;28;20332;-72
2022/09/09 12:12:53;;;;;;;6.35;1.10;;;22.90;99.90;;;;;;5119511;28;20075;-72
2022/09/09 12:15:23;;;;;;;8.23;1.27;;;23.00;99.90;;;;;;5119353;28;20116;-72
2022/09/09 12:17:53;;;;;;;5.25;1.10;;;23.20;99.90;;;;;;5119361;28;20067;-72
2022/09/09 12:20:31;;;;;;;4.15;1.30;;;23.10;99.90;;;;;;5119377;28;20058;-72
2022/09/09 12:23:19;;;;;;;5.07;0.93;;;23.20;99.90;;;;;;5119258;28;20416;-72
2022/09/09 12:26:03;;;;;;;8.15;1.55;;;23.30;99.90;;;;;;5119461;28;20114;-72
2022/09/09 12:28:32;;;;;;;7.97;1.48;;;23.00;99.90;;;;;;5118565;28;20332;-72
2022/09/09 12:31:03;;;;;;;7.18;1.13;;;22.70;99.90;;;;;;5118853;28;20310;-72
2022/09/09 12:33:39;;;;;;;3.50;0.70;;;22.60;99.90;;;;;;5152409;27;20426;-72
2022/09/09 12:36:09;;;;;;;9.10;1.65;;;22.50;99.90;;;;;;5118995;28;20036;-71
2022/09/09 12:38:39;;;;;;;6.57;1.70;;;22.30;99.90;;;;;;5119225;28;20070;-72
2022/09/09 12:41:05;;;;;;;4.72;1.17;;;22.30;99.90;;;;;;5117481;28;20386;-72
2022/09/09 12:43:31;;;;;;;9.13;1.42;;;22.30;99.90;;;;;;5118659;28;20130;-72
2022/09/09 12:46:27;;;;;;;6.40;1.20;;;22.30;99.90;;;;;;5117696;28;20046;-72
2022/09/09 12:48:54;;;;;;;11.43;1.52;;;22.40;99.90;;;;;;5118806;28;20326;-72
2022/09/09 12:51:26;;;;;;;7.65;1.40;;;22.50;99.90;;;;;;5118681;28;20118;-72
2022/09/09 12:53:52;;;;;;;6.35;1.55;;;22.40;99.90;;;;;;5119025;28;20040;-72
2022/09/09 12:56:21;;;;;;;6.32;1.35;;;22.30;99.90;;;;;;5118784;28;20035;-72
2022/09/09 12:58:51;;;;;;;6.50;1.42;;;23.00;99.90;;;;;;5118110;28;20035;-72
2022/09/09 13:01:29;;;;;;;5.28;1.40;;;23.30;99.90;;;;;;5118336;28;20079;-72
2022/09/09 13:03:56;;;;;;;5.75;1.20;;;23.50;99.90;;;;;;5118317;27;20420;-72
2022/09/09 13:06:29;;;;;;;7.32;1.35;;;23.80;99.90;;;;;;5118170;28;20088;-73
2022/09/09 13:08:56;;;;;;;5.10;1.20;;;24.10;99.90;;;;;;5118536;28;20032;-72
2022/09/09 13:11:46;;;;;;;5.80;1.10;;;24.10;99.90;;;;;;5118175;28;20556;-72
2022/09/09 13:14:38;;;;;;;8.43;1.30;;;23.60;99.90;;;;;;5118347;28;20047;-72